Time;durP1;ratioP1;P1;durP2;ratioP2;P2;SDS_P1;SDS_P2;PMS_P1;PMS_P2;Temp;Humidity;BMP_temperature;BMP_pressure;BME280_temperature;BME280_humidity;BME280_pressure;Samples;Min_cycle;Max_cycle;Signal;HPM_P1;HPM_P2
2021/10/16 00:00:15;;;;;;;9.85;7.30;;;9.20;84.80;;;;;;6185524;23;20436;-75
2021/10/16 00:02:41;;;;;;;12.60;7.43;;;9.20;84.90;;;;;;6186916;23;20346;-77
2021/10/16 00:05:07;;;;;;;10.77;6.88;;;9.20;85.00;;;;;;6185469;23;19997;-75
2021/10/16 00:07:34;;;;;;;8.98;6.60;;;9.20;84.90;;;;;;6185793;23;20001;-78
2021/10/16 00:10:00;;;;;;;9.95;7.03;;;9.30;84.90;;;;;;6185309;23;20001;-76
2021/10/16 00:12:26;;;;;;;11.85;7.88;;;9.30;84.80;;;;;;6159711;23;20059;-75
2021/10/16 00:14:52;;;;;;;11.75;8.07;;;9.30;84.80;;;;;;6159399;23;20005;-77
2021/10/16 00:17:18;;;;;;;8.52;7.03;;;9.30;84.70;;;;;;6185666;23;20352;-75
2021/10/16 00:19:44;;;;;;;11.48;7.95;;;9.30;84.70;;;;;;6186244;23;19997;-76
2021/10/16 00:22:10;;;;;;;9.65;7.07;;;9.40;84.80;;;;;;6186043;23;20372;-75
2021/10/16 00:24:36;;;;;;;7.45;6.43;;;9.40;84.50;;;;;;6159080;23;20016;-76
2021/10/16 00:27:03;;;;;;;12.90;7.57;;;9.40;84.50;;;;;;6185717;23;20068;-77
2021/10/16 00:29:29;;;;;;;9.63;6.38;;;9.40;84.40;;;;;;6185869;23;20040;-75
2021/10/16 00:31:55;;;;;;;9.65;7.32;;;9.40;84.40;;;;;;6185547;23;20333;-77
2021/10/16 00:34:21;;;;;;;8.45;6.28;;;9.40;84.40;;;;;;6184867;23;20001;-77
2021/10/16 00:36:46;;;;;;;11.02;7.22;;;9.40;84.40;;;;;;6185487;23;20016;-79
2021/10/16 00:39:12;;;;;;;10.63;6.53;;;9.40;84.40;;;;;;6158358;23;20128;-79
2021/10/16 00:41:38;;;;;;;9.93;5.88;;;9.40;84.40;;;;;;6185598;23;20005;-77
2021/10/16 00:44:19;;;;;;;8.00;6.50;;;9.40;84.50;;;;;;6185411;23;20055;-77
2021/10/16 00:46:46;;;;;;;11.70;6.53;;;9.40;84.80;;;;;;6185223;23;20000;-76
2021/10/16 00:49:12;;;;;;;11.73;6.95;;;9.40;84.70;;;;;;6184244;23;20001;-76
2021/10/16 00:51:39;;;;;;;8.20;6.28;;;9.40;84.80;;;;;;6185563;23;20448;-75
2021/10/16 00:54:08;;;;;;;9.57;7.03;;;9.40;84.90;;;;;;6185500;23;20053;-77
2021/10/16 00:56:42;;;;;;;8.88;6.38;;;9.40;84.90;;;;;;6185474;23;20016;-76
2021/10/16 00:59:09;;;;;;;9.00;7.10;;;9.40;84.70;;;;;;6185356;23;20503;-75
2021/10/16 01:01:36;;;;;;;10.95;7.50;;;9.40;84.80;;;;;;6185710;23;19997;-76
2021/10/16 01:04:03;;;;;;;10.75;7.03;;;9.40;84.80;;;;;;6185927;23;19997;-75
2021/10/16 01:06:29;;;;;;;8.82;7.75;;;9.40;84.70;;;;;;6185866;23;20016;-76
2021/10/16 01:08:56;;;;;;;11.45;7.75;;;9.40;84.80;;;;;;6185298;23;19994;-77
2021/10/16 01:11:47;;;;;;;14.68;7.35;;;9.40;84.90;;;;;;6185494;23;20012;-75
2021/10/16 01:14:13;;;;;;;12.45;7.72;;;9.40;84.90;;;;;;6185467;23;20075;-76
2021/10/16 01:16:42;;;;;;;10.40;7.40;;;9.40;84.70;;;;;;6184304;23;20020;-75
2021/10/16 01:19:13;;;;;;;10.20;7.10;;;9.40;84.70;;;;;;6184657;23;20083;-76
2021/10/16 01:21:44;;;;;;;9.90;7.05;;;9.40;84.80;;;;;;6184943;23;20005;-75
2021/10/16 01:24:12;;;;;;;11.98;8.02;;;9.40;84.70;;;;;;6185066;23;20087;-77
2021/10/16 01:26:40;;;;;;;10.18;5.82;;;9.40;84.80;;;;;;6185456;23;20004;-75
2021/10/16 01:29:10;;;;;;;8.07;6.72;;;9.30;84.50;;;;;;6185333;23;20076;-75
2021/10/16 01:31:40;;;;;;;11.32;6.75;;;9.30;84.60;;;;;;6185598;23;20009;-75
2021/10/16 01:34:06;;;;;;;10.77;6.72;;;9.30;84.90;;;;;;6185250;23;19997;-75
2021/10/16 01:36:43;;;;;;;9.60;6.25;;;9.20;84.80;;;;;;6184874;23;20013;-77
2021/10/16 01:39:10;;;;;;;10.65;7.00;;;9.20;84.80;;;;;;6158551;23;20016;-75
2021/10/16 01:41:36;;;;;;;6.32;5.25;;;9.20;84.80;;;;;;6184913;23;19997;-74
2021/10/16 01:44:07;;;;;;;9.18;6.45;;;9.20;84.90;;;;;;6184824;23;20318;-74
2021/10/16 01:46:33;;;;;;;13.05;8.27;;;9.20;85.00;;;;;;6185353;23;20001;-76
2021/10/16 01:48:59;;;;;;;10.43;7.47;;;9.20;85.10;;;;;;6184846;23;20448;-76
2021/10/16 01:51:25;;;;;;;12.07;6.80;;;9.20;85.30;;;;;;6157731;23;20008;-75
2021/10/16 01:53:51;;;;;;;9.90;8.07;;;9.30;85.20;;;;;;6158674;23;20316;-75
2021/10/16 01:56:17;;;;;;;9.93;7.32;;;9.30;85.20;;;;;;6184626;23;20009;-75
2021/10/16 01:58:43;;;;;;;12.38;7.88;;;9.40;85.20;;;;;;6184868;23;20080;-74
2021/10/16 02:01:09;;;;;;;10.15;7.32;;;9.40;85.10;;;;;;6184963;23;20023;-74
2021/10/16 02:03:34;;;;;;;11.40;7.32;;;9.40;84.90;;;;;;6161413;23;19997;-76
2021/10/16 02:06:01;;;;;;;9.23;6.47;;;9.50;84.90;;;;;;6185096;23;20036;-76
2021/10/16 02:08:26;;;;;;;10.50;7.07;;;9.50;84.80;;;;;;6184731;23;20053;-75
2021/10/16 02:10:52;;;;;;;15.43;7.07;;;9.50;85.30;;;;;;6158845;23;20009;-76
2021/10/16 02:13:18;;;;;;;11.60;7.57;;;9.50;84.60;;;;;;6158410;23;20436;-74
2021/10/16 02:15:43;;;;;;;8.38;6.88;;;9.50;84.50;;;;;;6158170;23;20020;-76
2021/10/16 02:18:09;;;;;;;13.35;7.85;;;9.40;84.40;;;;;;6184827;23;20425;-74
2021/10/16 02:20:35;;;;;;;11.10;6.80;;;9.40;84.50;;;;;;6184792;23;20001;-75
2021/10/16 02:23:05;;;;;;;13.93;7.53;;;9.40;84.60;;;;;;6184944;23;20413;-75
2021/10/16 02:25:51;;;;;;;9.25;7.43;;;9.50;84.60;;;;;;6184700;23;20009;-75
2021/10/16 02:28:17;;;;;;;10.30;7.97;;;9.50;84.60;;;;;;6190896;23;20001;-76
2021/10/16 02:30:43;;;;;;;8.70;7.10;;;9.50;84.70;;;;;;6185036;23;20463;-76
2021/10/16 02:33:08;;;;;;;8.65;6.85;;;9.50;84.70;;;;;;6187846;23;20023;-76
2021/10/16 02:35:34;;;;;;;14.82;7.95;;;9.50;84.70;;;;;;6188512;23;20005;-75
2021/10/16 02:38:00;;;;;;;11.90;7.32;;;9.50;84.80;;;;;;6187931;23;20005;-76
2021/10/16 02:40:26;;;;;;;11.02;8.25;;;9.50;84.70;;;;;;6189352;23;20178;-75
2021/10/16 02:42:51;;;;;;;11.10;6.88;;;9.60;84.70;;;;;;6187119;23;19997;-76
2021/10/16 02:45:18;;;;;;;11.93;6.57;;;9.60;84.50;;;;;;6186365;23;20067;-76
2021/10/16 02:47:46;;;;;;;12.13;7.40;;;9.60;84.40;;;;;;6186893;23;20340;-75
2021/10/16 02:50:12;;;;;;;10.57;7.15;;;9.60;84.40;;;;;;6186707;23;19997;-76
2021/10/16 02:52:38;;;;;;;10.95;8.13;;;9.60;84.20;;;;;;6187375;23;20015;-77
2021/10/16 02:55:04;;;;;;;11.98;7.35;;;9.60;84.20;;;;;;6186882;23;20028;-78
2021/10/16 02:57:30;;;;;;;10.82;7.95;;;9.60;84.30;;;;;;6187212;23;20013;-78
2021/10/16 02:59:56;;;;;;;10.35;7.68;;;9.60;84.40;;;;;;6187111;23;20001;-75
2021/10/16 03:02:21;;;;;;;10.85;7.45;;;9.70;84.20;;;;;;6186410;23;20488;-77
2021/10/16 03:04:47;;;;;;;10.77;7.57;;;9.70;84.20;;;;;;6186684;23;19997;-78
2021/10/16 03:07:13;;;;;;;10.60;7.97;;;9.70;84.10;;;;;;6186422;23;20048;-76
2021/10/16 03:09:39;;;;;;;11.45;8.07;;;9.70;83.90;;;;;;6185581;23;20314;-77
2021/10/16 03:12:04;;;;;;;11.65;7.53;;;9.70;83.80;;;;;;6159636;23;20028;-76
2021/10/16 03:14:30;;;;;;;13.13;8.25;;;9.70;83.70;;;;;;6186641;23;20001;-77
2021/10/16 03:16:56;;;;;;;11.93;7.97;;;9.70;83.70;;;;;;6187239;23;20040;-76
2021/10/16 03:19:22;;;;;;;10.07;7.70;;;9.70;83.80;;;;;;6186178;23;20324;-76
2021/10/16 03:21:47;;;;;;;10.55;8.18;;;9.70;83.70;;;;;;6188734;23;20506;-78
2021/10/16 03:24:13;;;;;;;13.55;8.25;;;9.70;83.80;;;;;;6187428;23;20449;-75
2021/10/16 03:26:39;;;;;;;10.73;7.97;;;9.70;83.80;;;;;;6186465;23;20420;-74
2021/10/16 03:29:05;;;;;;;11.32;7.78;;;9.70;83.70;;;;;;6185388;23;20007;-75
2021/10/16 03:31:30;;;;;;;11.45;6.78;;;9.70;83.80;;;;;;6186286;23;20528;-75
2021/10/16 03:33:56;;;;;;;14.10;7.95;;;9.80;83.80;;;;;;6186172;23;20008;-77
2021/10/16 03:36:22;;;;;;;8.40;7.03;;;9.80;83.80;;;;;;6159587;23;20522;-76
2021/10/16 03:38:47;;;;;;;11.73;6.95;;;9.80;83.80;;;;;;6185986;23;20320;-76
2021/10/16 03:41:13;;;;;;;9.60;7.72;;;9.80;83.60;;;;;;6185819;23;20603;-76
2021/10/16 03:43:39;;;;;;;13.48;8.32;;;9.80;83.60;;;;;;6186295;23;20332;-74
2021/10/16 03:46:05;;;;;;;12.05;7.80;;;9.80;83.60;;;;;;6186081;23;20001;-75
2021/10/16 03:48:30;;;;;;;11.40;7.90;;;9.80;83.60;;;;;;6186400;23;20082;-76
2021/10/16 03:50:56;;;;;;;12.00;7.93;;;9.80;83.30;;;;;;6160136;23;20005;-76
2021/10/16 03:53:22;;;;;;;12.05;7.72;;;9.80;83.20;;;;;;6186029;23;20004;-77
2021/10/16 03:55:48;;;;;;;12.20;8.10;;;9.80;83.30;;;;;;6185880;23;20009;-76
2021/10/16 03:58:16;;;;;;;10.20;7.78;;;9.80;83.40;;;;;;6185479;23;20035;-77
2021/10/16 04:00:41;;;;;;;10.07;7.90;;;9.80;83.40;;;;;;6159118;23;20050;-76
2021/10/16 04:03:08;;;;;;;9.23;6.50;;;9.80;83.20;;;;;;6185864;23;20009;-76
2021/10/16 04:05:34;;;;;;;10.85;7.40;;;9.80;83.80;;;;;;6184796;23;20012;-77
2021/10/16 04:08:01;;;;;;;11.38;7.32;;;9.70;83.30;;;;;;6185913;23;20052;-75
2021/10/16 04:10:26;;;;;;;12.25;8.43;;;9.70;83.30;;;;;;6185833;23;20029;-76
2021/10/16 04:12:53;;;;;;;8.32;7.32;;;9.70;83.40;;;;;;6185699;23;20020;-75
2021/10/16 04:15:19;;;;;;;13.98;7.53;;;9.70;83.50;;;;;;6185574;23;20001;-76
2021/10/16 04:17:48;;;;;;;8.95;6.88;;;9.70;83.60;;;;;;6186087;23;20005;-77
2021/10/16 04:20:14;;;;;;;11.10;6.07;;;9.70;83.40;;;;;;6185308;23;19998;-77
2021/10/16 04:22:40;;;;;;;10.82;7.15;;;9.70;83.60;;;;;;6185613;23;20055;-76
2021/10/16 04:25:06;;;;;;;11.43;7.15;;;9.70;83.60;;;;;;6159529;23;20013;-77
2021/10/16 04:27:32;;;;;;;8.02;5.65;;;9.70;83.60;;;;;;6186293;23;20072;-77
2021/10/16 04:29:58;;;;;;;11.00;7.60;;;9.70;83.40;;;;;;6185987;23;20432;-75
2021/10/16 04:32:24;;;;;;;9.05;6.65;;;9.70;83.20;;;;;;6160384;23;20055;-77
2021/10/16 04:34:49;;;;;;;11.52;7.18;;;9.70;82.70;;;;;;6186915;23;20071;-76
2021/10/16 04:37:16;;;;;;;11.95;6.45;;;9.70;82.70;;;;;;6185515;23;20044;-75
2021/10/16 04:39:42;;;;;;;10.57;7.38;;;9.70;82.70;;;;;;6185948;23;20504;-75
2021/10/16 04:42:11;;;;;;;13.50;8.25;;;9.70;82.30;;;;;;6185745;23;20012;-77
2021/10/16 04:44:38;;;;;;;10.63;8.02;;;9.70;82.50;;;;;;6185398;23;20001;-73
2021/10/16 04:47:04;;;;;;;13.60;7.55;;;9.80;82.40;;;;;;6184495;23;20005;-73
2021/10/16 04:49:30;;;;;;;9.93;6.75;;;9.80;82.40;;;;;;6185429;23;20115;-74
2021/10/16 04:51:56;;;;;;;8.43;6.18;;;9.80;82.20;;;;;;6185334;23;20005;-72
2021/10/16 04:54:21;;;;;;;9.75;6.78;;;9.80;81.90;;;;;;6185313;23;20028;-73
2021/10/16 04:56:47;;;;;;;12.23;8.05;;;9.80;81.90;;;;;;6184632;23;20432;-73
2021/10/16 04:59:13;;;;;;;8.30;7.10;;;9.80;81.60;;;;;;6185404;23;20065;-73
2021/10/16 05:01:41;;;;;;;11.52;8.02;;;9.90;81.60;;;;;;6184249;23;20075;-73
2021/10/16 05:04:07;;;;;;;10.27;5.95;;;9.90;81.40;;;;;;6158617;23;20005;-74
2021/10/16 05:06:33;;;;;;;12.50;6.57;;;9.90;81.20;;;;;;6185446;23;20448;-74
2021/10/16 05:09:00;;;;;;;11.38;6.78;;;9.90;81.30;;;;;;6185289;23;20001;-72
2021/10/16 05:11:25;;;;;;;11.82;6.55;;;9.90;81.20;;;;;;6184380;23;20012;-73
2021/10/16 05:13:51;;;;;;;10.77;7.15;;;9.80;81.10;;;;;;6185281;23;20004;-73
2021/10/16 05:16:17;;;;;;;11.85;7.35;;;9.80;81.30;;;;;;6185118;23;20340;-73
2021/10/16 05:18:43;;;;;;;12.18;8.23;;;9.80;81.30;;;;;;6185479;23;20048;-73
2021/10/16 05:21:09;;;;;;;11.02;7.13;;;9.80;81.60;;;;;;6185523;23;20422;-72
2021/10/16 05:23:36;;;;;;;11.68;7.22;;;9.90;81.30;;;;;;6184670;23;20009;-73
2021/10/16 05:26:02;;;;;;;7.32;5.53;;;9.90;80.90;;;;;;6185117;23;20009;-72
2021/10/16 05:28:28;;;;;;;9.63;7.05;;;9.90;80.90;;;;;;6185693;23;20329;-72
2021/10/16 05:30:54;;;;;;;10.57;6.85;;;9.90;81.00;;;;;;6185175;23;20001;-74
2021/10/16 05:33:19;;;;;;;10.30;6.53;;;9.90;80.90;;;;;;6158451;23;20001;-73
2021/10/16 05:35:45;;;;;;;9.57;6.47;;;10.00;80.80;;;;;;6184976;23;20001;-72
2021/10/16 05:38:14;;;;;;;8.77;7.15;;;10.00;80.70;;;;;;6158573;23;20055;-75
2021/10/16 05:40:41;;;;;;;9.15;6.90;;;10.10;80.60;;;;;;6185237;23;20091;-73
2021/10/16 05:43:07;;;;;;;10.55;7.18;;;10.20;80.30;;;;;;6184952;23;20008;-74
2021/10/16 05:45:34;;;;;;;13.38;7.65;;;10.30;79.70;;;;;;6184960;23;20009;-73
2021/10/16 05:48:03;;;;;;;7.28;6.38;;;10.30;79.90;;;;;;6185247;23;20035;-73
2021/10/16 05:50:32;;;;;;;12.73;7.30;;;10.30;79.40;;;;;;6185208;23;20364;-76
2021/10/16 05:52:58;;;;;;;11.43;7.00;;;10.20;79.50;;;;;;6185993;23;20076;-74
2021/10/16 05:55:23;;;;;;;12.27;7.00;;;10.20;79.60;;;;;;6185286;23;20001;-74
2021/10/16 05:57:51;;;;;;;12.50;7.25;;;10.30;79.60;;;;;;6185756;23;20005;-74
2021/10/16 06:00:16;;;;;;;12.32;7.43;;;10.40;79.50;;;;;;6184927;23;20008;-74
2021/10/16 06:02:42;;;;;;;10.90;7.22;;;10.50;79.30;;;;;;6186061;23;20436;-74
2021/10/16 06:05:08;;;;;;;9.23;6.82;;;10.50;79.00;;;;;;6159219;23;20085;-73
2021/10/16 06:07:34;;;;;;;9.75;6.97;;;10.50;79.00;;;;;;6158359;23;20005;-72
2021/10/16 06:10:00;;;;;;;13.35;7.55;;;10.50;78.90;;;;;;6187347;23;20077;-74
2021/10/16 06:12:26;;;;;;;8.48;6.25;;;10.50;78.90;;;;;;6187045;23;20005;-74
2021/10/16 06:14:53;;;;;;;9.93;7.43;;;10.50;79.10;;;;;;6187033;23;20012;-75
2021/10/16 06:17:19;;;;;;;7.07;5.32;;;10.40;78.80;;;;;;6186839;23;20009;-73
2021/10/16 06:19:45;;;;;;;11.63;7.68;;;10.40;78.40;;;;;;6186803;23;20048;-72
2021/10/16 06:22:11;;;;;;;8.27;7.35;;;10.30;78.50;;;;;;6186700;23;20021;-75
2021/10/16 06:24:37;;;;;;;9.77;5.00;;;10.40;79.30;;;;;;6186547;23;20009;-73
2021/10/16 06:27:03;;;;;;;10.52;5.63;;;10.40;78.10;;;;;;6186289;23;20440;-74
2021/10/16 06:29:29;;;;;;;11.93;7.60;;;10.40;78.40;;;;;;6186622;23;19997;-74
2021/10/16 06:31:55;;;;;;;10.30;6.93;;;10.40;78.40;;;;;;6186603;23;20009;-74
2021/10/16 06:34:21;;;;;;;10.90;7.30;;;10.50;78.40;;;;;;6160743;23;20156;-73
2021/10/16 06:36:47;;;;;;;7.20;6.00;;;10.60;77.80;;;;;;6186486;23;20009;-74
2021/10/16 06:39:12;;;;;;;9.70;7.18;;;10.50;77.50;;;;;;6185380;23;20001;-74
2021/10/16 06:41:38;;;;;;;8.90;7.10;;;10.60;77.60;;;;;;6187092;23;20483;-74
2021/10/16 06:44:04;;;;;;;13.82;7.65;;;10.60;77.30;;;;;;6186322;23;20001;-74
2021/10/16 06:46:30;;;;;;;10.45;7.32;;;10.60;77.50;;;;;;6186125;23;20000;-74
2021/10/16 06:48:56;;;;;;;12.95;7.32;;;10.60;77.20;;;;;;6186355;23;20013;-75
2021/10/16 06:51:22;;;;;;;8.93;5.55;;;10.60;76.90;;;;;;6186452;23;20479;-73
2021/10/16 06:53:48;;;;;;;8.82;5.50;;;10.50;77.10;;;;;;6185541;23;20005;-73
2021/10/16 06:56:13;;;;;;;12.57;7.72;;;10.60;77.10;;;;;;6185398;23;20005;-73
2021/10/16 06:58:39;;;;;;;10.98;6.20;;;10.60;77.00;;;;;;6185158;23;20047;-73
2021/10/16 07:01:05;;;;;;;10.88;6.80;;;10.60;76.80;;;;;;6185646;23;20092;-72
2021/10/16 07:03:31;;;;;;;12.23;6.70;;;10.60;76.90;;;;;;6185359;23;20432;-73
2021/10/16 07:05:57;;;;;;;10.50;7.50;;;10.70;76.60;;;;;;6186046;23;20001;-73
2021/10/16 07:08:29;;;;;;;9.68;6.60;;;10.70;76.70;;;;;;6186137;23;20001;-73
2021/10/16 07:10:58;;;;;;;7.65;6.07;;;10.70;76.60;;;;;;6186331;23;20333;-71
2021/10/16 07:13:25;;;;;;;10.82;6.25;;;10.70;76.20;;;;;;6159681;23;20440;-75
2021/10/16 07:15:51;;;;;;;24.58;15.02;;;10.70;76.40;;;;;;6186450;23;20453;-73
2021/10/16 07:18:18;;;;;;;13.77;9.75;;;10.70;76.00;;;;;;6185827;23;20120;-73
2021/10/16 07:20:44;;;;;;;16.13;6.85;;;10.70;76.10;;;;;;6185218;23;20005;-74
2021/10/16 07:23:09;;;;;;;11.70;7.15;;;10.70;75.80;;;;;;6185088;23;20020;-74
2021/10/16 07:25:35;;;;;;;9.15;6.53;;;10.80;76.30;;;;;;6159507;23;20084;-73
2021/10/16 07:28:01;;;;;;;11.45;6.97;;;10.80;75.80;;;;;;6186102;23;20049;-73
2021/10/16 07:30:27;;;;;;;9.13;6.15;;;10.80;76.20;;;;;;6187217;23;20439;-74
2021/10/16 07:32:53;;;;;;;18.10;7.65;;;11.00;75.70;;;;;;6185984;23;20053;-73
2021/10/16 07:35:19;;;;;;;12.20;6.43;;;11.00;75.70;;;;;;6186411;23;20173;-75
2021/10/16 07:37:45;;;;;;;13.02;6.90;;;11.00;75.00;;;;;;6187195;23;20083;-74
2021/10/16 07:40:11;;;;;;;13.50;6.95;;;11.10;74.90;;;;;;6187208;23;20032;-74
2021/10/16 07:42:37;;;;;;;11.15;7.22;;;11.10;74.50;;;;;;6185065;23;20032;-74
2021/10/16 07:45:03;;;;;;;11.50;6.95;;;11.10;74.30;;;;;;6185751;23;20001;-73
2021/10/16 07:47:29;;;;;;;10.10;7.40;;;11.10;74.20;;;;;;6159680;23;20451;-72
2021/10/16 07:49:55;;;;;;;10.95;6.43;;;11.10;74.20;;;;;;6159759;23;20519;-74
2021/10/16 07:52:22;;;;;;;13.13;7.32;;;11.30;74.10;;;;;;6185430;23;20036;-74
2021/10/16 07:54:48;;;;;;;10.17;7.40;;;11.30;73.30;;;;;;6185338;23;20499;-74
2021/10/16 07:57:14;;;;;;;8.77;6.30;;;11.30;73.10;;;;;;6185433;23;20516;-73
2021/10/16 07:59:41;;;;;;;8.05;5.88;;;11.40;72.90;;;;;;6185676;23;19997;-73
2021/10/16 08:02:07;;;;;;;10.70;6.07;;;11.50;72.60;;;;;;6185786;23;20001;-74
2021/10/16 08:04:36;;;;;;;12.63;6.47;;;11.50;72.10;;;;;;6185477;23;20003;-74
2021/10/16 08:07:02;;;;;;;12.40;5.88;;;11.60;72.00;;;;;;6185497;23;20012;-76
2021/10/16 08:09:28;;;;;;;11.13;6.90;;;11.50;71.20;;;;;;6185683;23;20405;-77
2021/10/16 08:11:53;;;;;;;9.20;6.18;;;11.60;71.40;;;;;;6185017;23;20080;-75
2021/10/16 08:14:19;;;;;;;9.25;6.68;;;11.60;70.90;;;;;;6185136;23;20007;-76
2021/10/16 08:16:45;;;;;;;12.57;5.55;;;11.70;70.70;;;;;;6157892;23;20444;-76
2021/10/16 08:19:14;;;;;;;11.10;6.85;;;11.70;70.40;;;;;;6185725;23;20001;-78
2021/10/16 08:21:40;;;;;;;9.38;6.03;;;11.80;70.60;;;;;;6184994;23;20025;-76
2021/10/16 08:24:06;;;;;;;14.30;7.55;;;11.90;69.50;;;;;;6184204;23;20009;-76
2021/10/16 08:26:35;;;;;;;10.90;5.80;;;11.90;69.10;;;;;;6185662;23;20035;-76
2021/10/16 08:29:03;;;;;;;9.70;6.80;;;12.00;69.10;;;;;;6186104;23;20001;-77
2021/10/16 08:31:29;;;;;;;7.85;5.75;;;12.10;67.90;;;;;;6186057;23;20104;-77
2021/10/16 08:33:55;;;;;;;8.77;6.43;;;12.20;67.40;;;;;;6185773;23;20488;-79
2021/10/16 08:36:21;;;;;;;9.02;5.95;;;12.20;67.00;;;;;;6185682;23;20476;-77
2021/10/16 08:38:47;;;;;;;9.55;4.78;;;12.20;66.60;;;;;;6185199;23;19997;-77
2021/10/16 08:41:13;;;;;;;12.73;6.50;;;12.20;65.80;;;;;;6185932;23;20077;-78
2021/10/16 08:43:41;;;;;;;13.05;6.97;;;12.20;65.60;;;;;;6185624;23;20004;-76
2021/10/16 08:46:08;;;;;;;15.68;5.78;;;12.30;65.40;;;;;;6159040;23;20009;-77
2021/10/16 08:48:34;;;;;;;8.25;4.40;;;12.40;65.30;;;;;;6185356;23;20084;-76
2021/10/16 08:51:01;;;;;;;9.82;5.25;;;12.40;63.90;;;;;;6186093;23;19997;-77
2021/10/16 08:53:27;;;;;;;16.00;7.18;;;12.40;64.10;;;;;;6186260;23;20001;-73
2021/10/16 08:55:53;;;;;;;10.15;5.07;;;12.40;64.60;;;;;;6186262;23;20056;-77
2021/10/16 08:58:20;;;;;;;9.80;5.65;;;12.40;63.80;;;;;;6185842;23;19997;-76
2021/10/16 09:00:52;;;;;;;10.68;5.82;;;12.30;64.00;;;;;;6185871;23;20075;-78
2021/10/16 09:03:27;;;;;;;11.85;7.07;;;12.20;64.10;;;;;;6185977;23;20008;-78
2021/10/16 09:06:09;;;;;;;12.07;6.10;;;12.20;64.70;;;;;;6185065;23;19997;-76
2021/10/16 09:08:44;;;;;;;9.40;6.30;;;12.10;64.50;;;;;;6185918;23;20004;-77
2021/10/16 09:11:29;;;;;;;6.85;4.40;;;12.20;64.70;;;;;;6185741;23;20005;-75
2021/10/16 09:14:03;;;;;;;13.30;7.65;;;12.20;64.30;;;;;;6185056;23;20012;-76
2021/10/16 09:16:44;;;;;;;14.02;6.68;;;12.20;64.00;;;;;;6183766;23;20009;-77
2021/10/16 09:19:31;;;;;;;12.18;7.40;;;12.30;64.00;;;;;;6156781;23;20035;-75
2021/10/16 09:22:03;;;;;;;10.07;6.63;;;12.30;64.10;;;;;;6183301;23;20001;-76
2021/10/16 09:24:40;;;;;;;8.60;6.68;;;12.50;63.70;;;;;;6183865;23;20123;-76
2021/10/16 09:27:09;;;;;;;16.25;7.47;;;12.60;63.60;;;;;;6158576;23;20278;-75
2021/10/16 09:29:42;;;;;;;12.00;6.32;;;12.60;63.20;;;;;;6183879;23;20403;-76
2021/10/16 09:32:11;;;;;;;10.90;7.00;;;12.70;61.80;;;;;;6183014;23;20344;-77
2021/10/16 09:34:40;;;;;;;13.82;6.60;;;12.70;62.10;;;;;;6183517;23;20009;-77
2021/10/16 09:37:07;;;;;;;10.63;7.28;;;12.80;61.10;;;;;;6184210;23;20012;-76
2021/10/16 09:39:35;;;;;;;9.95;6.40;;;12.90;61.10;;;;;;6182940;23;20001;-77
2021/10/16 09:42:04;;;;;;;11.68;7.70;;;13.00;60.60;;;;;;6158234;23;20084;-75
2021/10/16 09:44:32;;;;;;;10.15;6.80;;;13.00;60.60;;;;;;6182778;23;20080;-76
2021/10/16 09:47:03;;;;;;;11.65;7.03;;;12.90;60.20;;;;;;6184429;23;20332;-76
2021/10/16 09:49:52;;;;;;;15.52;7.22;;;12.90;60.60;;;;;;6184112;23;20028;-77
2021/10/16 09:52:20;;;;;;;14.13;6.78;;;13.00;60.60;;;;;;6184423;23;20009;-77
2021/10/16 09:54:48;;;;;;;17.13;8.45;;;13.00;60.00;;;;;;6184533;23;20076;-77
2021/10/16 09:57:19;;;;;;;12.82;7.93;;;13.00;60.20;;;;;;6184249;23;20005;-74
2021/10/16 09:59:44;;;;;;;11.98;6.43;;;13.10;60.10;;;;;;6184091;23;20383;-76
2021/10/16 10:02:20;;;;;;;11.50;7.53;;;13.20;59.50;;;;;;6184591;23;20037;-75
2021/10/16 10:04:48;;;;;;;9.25;7.35;;;13.00;59.50;;;;;;6184422;23;19997;-76
2021/10/16 10:07:18;;;;;;;11.40;8.35;;;13.00;59.00;;;;;;6184629;23;20004;-75
2021/10/16 10:09:45;;;;;;;10.38;8.18;;;12.90;59.90;;;;;;6184143;23;20001;-77
2021/10/16 10:12:12;;;;;;;12.20;6.97;;;12.90;59.60;;;;;;6158107;23;20009;-76
2021/10/16 10:14:51;;;;;;;13.50;8.43;;;12.90;60.20;;;;;;6185065;23;20025;-77
2021/10/16 10:17:31;;;;;;;13.82;7.78;;;12.90;59.60;;;;;;6184558;23;20433;-76
2021/10/16 10:20:04;;;;;;;11.77;6.97;;;12.90;59.90;;;;;;6184725;23;20001;-78
2021/10/16 10:22:44;;;;;;;13.63;7.20;;;12.90;59.60;;;;;;6158331;23;20040;-79
2021/10/16 10:25:28;;;;;;;12.18;7.95;;;12.80;59.60;;;;;;6157498;23;20100;-77
2021/10/16 10:27:56;;;;;;;12.98;8.27;;;12.80;59.60;;;;;;6184663;23;20001;-75
2021/10/16 10:30:41;;;;;;;10.65;8.10;;;12.70;59.10;;;;;;6183898;23;20424;-76
2021/10/16 10:33:16;;;;;;;11.85;8.05;;;12.70;59.70;;;;;;6157992;23;20094;-76
2021/10/16 10:36:03;;;;;;;14.60;7.15;;;12.80;59.50;;;;;;6184448;23;19997;-75
2021/10/16 10:38:40;;;;;;;10.10;7.60;;;12.80;59.00;;;;;;6184569;23;20511;-76
2021/10/16 10:41:24;;;;;;;10.83;7.90;;;12.70;59.10;;;;;;6184596;23;19997;-75
2021/10/16 10:43:52;;;;;;;14.23;9.45;;;12.80;59.40;;;;;;6184548;23;20301;-75
2021/10/16 10:46:22;;;;;;;12.88;9.40;;;12.80;59.80;;;;;;6184537;23;20027;-74
2021/10/16 10:48:49;;;;;;;10.07;8.25;;;12.70;59.00;;;;;;6184664;23;20005;-76
2021/10/16 10:51:37;;;;;;;11.27;6.80;;;12.70;58.80;;;;;;6184580;23;20337;-78
2021/10/16 10:54:09;;;;;;;11.32;8.05;;;12.70;58.80;;;;;;6185593;23;20000;-75
2021/10/16 10:56:40;;;;;;;13.70;7.28;;;12.60;58.60;;;;;;6186369;23;20067;-75
2021/10/16 10:59:10;;;;;;;8.88;6.35;;;12.60;59.10;;;;;;6186230;23;20035;-74
2021/10/16 11:01:51;;;;;;;12.77;7.97;;;12.60;59.00;;;;;;6187102;23;20084;-76
2021/10/16 11:04:37;;;;;;;13.57;8.32;;;12.50;59.50;;;;;;6160146;23;20009;-76
2021/10/16 11:07:05;;;;;;;18.17;9.32;;;12.50;59.80;;;;;;6186480;23;20025;-76
2021/10/16 11:09:32;;;;;;;10.60;8.02;;;12.50;59.70;;;;;;6186317;23;20080;-75
2021/10/16 11:11:58;;;;;;;13.23;7.50;;;12.50;59.50;;;;;;6186477;23;20028;-75
2021/10/16 11:14:36;;;;;;;12.93;7.38;;;12.40;59.50;;;;;;6186332;23;20005;-77
2021/10/16 11:17:08;;;;;;;15.93;8.55;;;12.40;59.30;;;;;;6186380;23;20009;-76
2021/10/16 11:19:55;;;;;;;12.93;7.35;;;12.30;59.90;;;;;;6186797;23;20016;-76
2021/10/16 11:22:23;;;;;;;14.35;7.93;;;12.40;60.10;;;;;;6186984;23;20340;-76
2021/10/16 11:24:58;;;;;;;12.15;9.05;;;12.30;59.80;;;;;;6160567;23;20036;-77
2021/10/16 11:27:23;;;;;;;11.18;7.47;;;12.40;59.90;;;;;;6130694;23;20452;-76
2021/10/16 11:29:55;;;;;;;15.40;7.55;;;12.40;59.50;;;;;;6156561;23;19997;-75
2021/10/16 11:32:25;;;;;;;15.32;9.70;;;12.40;59.10;;;;;;6156542;23;20078;-77
2021/10/16 11:35:02;;;;;;;14.68;7.32;;;12.50;59.20;;;;;;6130556;23;20006;-76
2021/10/16 11:37:41;;;;;;;13.10;9.50;;;12.50;58.90;;;;;;6156350;23;20098;-75
2021/10/16 11:40:11;;;;;;;22.35;12.60;;;12.50;59.00;;;;;;6130253;23;20344;-75
2021/10/16 11:42:38;;;;;;;13.63;10.02;;;12.50;59.10;;;;;;6130134;23;20448;-75
2021/10/16 11:45:18;;;;;;;19.23;8.93;;;12.50;59.40;;;;;;6156185;23;19997;-80
2021/10/16 11:47:53;;;;;;;16.73;9.30;;;12.60;59.10;;;;;;6156079;23;20013;-84
2021/10/16 11:50:26;;;;;;;13.27;8.68;;;12.60;59.00;;;;;;6156289;23;20005;-75
2021/10/16 11:53:15;;;;;;;13.02;7.63;;;12.60;58.70;;;;;;6156280;23;20005;-75
2021/10/16 11:55:57;;;;;;;12.23;8.85;;;12.70;58.80;;;;;;6156014;23;20001;-77
2021/10/16 11:58:25;;;;;;;11.00;8.40;;;12.70;59.10;;;;;;6155407;23;20012;-75
2021/10/16 12:00:51;;;;;;;12.35;8.25;;;12.70;58.90;;;;;;6155743;23;20372;-78
2021/10/16 12:03:20;;;;;;;15.13;8.47;;;12.70;59.00;;;;;;6155569;23;20009;-77
2021/10/16 12:05:49;;;;;;;15.30;9.27;;;12.70;59.20;;;;;;6155448;23;19997;-75
2021/10/16 12:08:21;;;;;;;17.92;7.70;;;12.80;59.50;;;;;;6129713;23;20029;-77
2021/10/16 12:10:51;;;;;;;14.73;8.52;;;12.80;59.20;;;;;;6156571;23;20085;-75
2021/10/16 12:13:41;;;;;;;11.18;8.82;;;12.90;59.00;;;;;;6156798;23;20018;-76
2021/10/16 12:16:19;;;;;;;17.92;9.60;;;12.90;59.80;;;;;;6130291;23;20010;-76
2021/10/16 12:18:55;;;;;;;14.32;9.20;;;12.90;59.30;;;;;;6155830;23;20005;-77
2021/10/16 12:21:34;;;;;;;15.15;10.32;;;12.90;59.60;;;;;;6155798;23;20077;-77
2021/10/16 12:24:12;;;;;;;14.18;9.55;;;12.90;59.40;;;;;;6171482;23;20079;-76
2021/10/16 12:26:42;;;;;;;14.93;11.00;;;13.00;59.60;;;;;;6185724;23;20009;-77
2021/10/16 12:29:11;;;;;;;19.23;10.38;;;13.00;59.30;;;;;;6185204;23;20056;-79
2021/10/16 12:31:45;;;;;;;13.02;8.93;;;12.90;59.10;;;;;;6185399;23;20309;-78
2021/10/16 12:34:20;;;;;;;14.40;8.15;;;12.90;58.80;;;;;;6185451;23;20321;-76
2021/10/16 12:37:07;;;;;;;16.65;8.73;;;13.00;59.00;;;;;;6185025;23;20016;-78
2021/10/16 12:39:38;;;;;;;11.95;7.88;;;12.90;59.10;;;;;;6185039;23;20025;-80
2021/10/16 12:42:16;;;;;;;10.48;8.50;;;12.90;58.60;;;;;;6184938;23;20004;-80
2021/10/16 12:44:47;;;;;;;14.05;8.10;;;12.90;59.00;;;;;;6184792;23;20001;-78
2021/10/16 12:47:18;;;;;;;12.50;7.60;;;12.90;58.60;;;;;;6184817;23;20008;-80
2021/10/16 12:49:50;;;;;;;9.45;7.22;;;12.90;58.50;;;;;;6158826;23;20001;-77